Brochet, Canada
Current Conditions -  °F | °C
As of 12:00 AM on Friday 31 Oct 2014 (Local Time) from CYYL Reporting Station
Clear Clear  
Wind Chill: 11°   Ceiling: Unl
Heat Index: 19°   Visibility: 9mi
Dew Point: 18°   Wind: 6mph
Humidity: 93%   Direction: 190°S
Pressure: 30.38"   Gusts: NA
Location:  57.88°N, 101.67°W
Report Text: CYYL 310500Z AUTO 19005KT 9SM CLR M07/M08 A3038 RMK SLP316
Loading
Personal Weather Stations






























Interactive Weather Map
Tropical Storm Tracking
New forecast layout! Learn more

10-Day Weather Forecast

Advertisements
Track Severe Weather on mobile